createdAt,value
2023-03-27T00:01:27.733Z,100.00
2023-03-27T00:03:55.913Z,100.00
2023-03-27T00:06:25.386Z,100.00
2023-03-27T00:08:53.630Z,100.00
2023-03-27T00:11:25.003Z,100.00
2023-03-27T00:13:55.584Z,100.00
2023-03-27T00:16:26.755Z,100.00
2023-03-27T00:18:55.543Z,100.00
2023-03-27T00:21:24.585Z,100.00
2023-03-27T00:23:54.705Z,100.00
2023-03-27T00:26:23.048Z,100.00
2023-03-27T00:28:51.267Z,100.00
2023-03-27T00:31:19.439Z,100.00
2023-03-27T00:33:47.402Z,100.00
2023-03-27T00:36:15.504Z,100.00
2023-03-27T00:38:43.925Z,100.00
2023-03-27T00:41:12.816Z,100.00
2023-03-27T00:43:43.929Z,100.00
2023-03-27T00:46:15.526Z,100.00
2023-03-27T00:48:48.322Z,100.00
2023-03-27T00:51:18.022Z,100.00
2023-03-27T00:53:47.715Z,100.00
2023-03-27T00:56:16.684Z,100.00
2023-03-27T00:58:48.780Z,100.00
2023-03-27T01:01:19.219Z,100.00
2023-03-27T01:03:49.147Z,100.00
2023-03-27T01:06:19.086Z,100.00
2023-03-27T01:08:48.268Z,100.00
2023-03-27T01:11:43.002Z,100.00
2023-03-27T01:14:35.441Z,100.00
2023-03-27T01:17:23.286Z,100.00
2023-03-27T01:20:10.122Z,100.00
2023-03-27T01:22:47.285Z,100.00
2023-03-27T01:25:35.484Z,100.00
2023-03-27T01:28:12.659Z,100.00
2023-03-27T01:30:59.388Z,100.00
2023-03-27T01:33:46.217Z,100.00
2023-03-27T01:36:36.223Z,100.00
2023-03-27T01:39:27.539Z,100.00
2023-03-27T01:42:14.438Z,100.00
2023-03-27T01:45:21.869Z,100.00
2023-03-27T01:48:04.736Z,100.00
2023-03-27T01:50:32.604Z,100.00
2023-03-27T01:53:05.286Z,100.00
2023-03-27T01:55:39.520Z,100.00
2023-03-27T01:58:14.101Z,100.00
2023-03-27T02:00:52.494Z,100.00
2023-03-27T02:03:29.835Z,100.00
2023-03-27T02:06:06.813Z,100.00
2023-03-27T02:08:50.411Z,100.00
2023-03-27T02:11:25.682Z,100.00
2023-03-27T02:14:01.312Z,100.00
2023-03-27T02:16:34.644Z,100.00
2023-03-27T02:19:11.019Z,100.00
2023-03-27T02:21:39.244Z,100.00
2023-03-27T02:24:09.091Z,100.00
2023-03-27T02:26:38.226Z,100.00
2023-03-27T02:29:36.976Z,100.00
2023-03-27T02:32:29.242Z,100.00
2023-03-27T02:35:12.800Z,100.00
2023-03-27T02:37:55.686Z,100.00
2023-03-27T02:41:20.722Z,100.00
2023-03-27T02:44:21.010Z,100.00
2023-03-27T02:47:08.664Z,100.00
2023-03-27T02:49:46.913Z,100.00
2023-03-27T02:52:38.712Z,100.00
2023-03-27T02:55:13.012Z,100.00
2023-03-27T02:57:52.589Z,100.00
2023-03-27T03:00:42.165Z,100.00
2023-03-27T03:03:37.694Z,100.00
2023-03-27T03:06:16.200Z,100.00
2023-03-27T03:08:46.751Z,100.00
2023-03-27T03:11:15.093Z,100.00
2023-03-27T03:13:43.688Z,100.00
2023-03-27T03:16:11.898Z,100.00
2023-03-27T03:18:41.256Z,100.00
2023-03-27T03:21:09.630Z,100.00
2023-03-27T03:23:39.199Z,100.00
2023-03-27T03:26:08.226Z,100.00
2023-03-27T03:29:00.790Z,100.00
2023-03-27T03:31:43.295Z,100.00
2023-03-27T03:34:14.794Z,100.00
2023-03-27T03:36:44.932Z,100.00
2023-03-27T03:39:13.231Z,100.00
2023-03-27T03:41:43.413Z,100.00
2023-03-27T03:44:11.657Z,100.00
2023-03-27T03:46:40.773Z,100.00
2023-03-27T03:49:09.054Z,100.00
2023-03-27T03:51:38.950Z,100.00
2023-03-27T03:54:09.276Z,100.00
2023-03-27T03:56:41.794Z,100.00
2023-03-27T03:59:14.782Z,100.00
2023-03-27T04:02:53.814Z,100.00
2023-03-27T04:05:24.018Z,100.00
2023-03-27T04:07:53.305Z,100.00
2023-03-27T04:10:27.814Z,100.00
2023-03-27T04:12:57.240Z,100.00
2023-03-27T04:15:30.565Z,100.00
2023-03-27T04:18:01.477Z,100.00
2023-03-27T04:20:29.825Z,100.00
2023-03-27T04:23:02.462Z,100.00
2023-03-27T04:25:31.579Z,100.00
2023-03-27T04:28:04.388Z,100.00
2023-03-27T04:34:38.430Z,100.00
2023-03-27T04:37:10.366Z,100.00
2023-03-27T04:39:46.414Z,100.00
2023-03-27T04:42:14.881Z,100.00
2023-03-27T04:44:43.511Z,100.00
2023-03-27T04:47:11.487Z,100.00
2023-03-27T04:49:46.784Z,100.00
2023-03-27T04:52:21.483Z,100.00
2023-03-27T04:54:49.439Z,100.00
2023-03-27T04:57:19.415Z,100.00
2023-03-27T04:59:50.416Z,100.00
2023-03-27T05:02:37.098Z,100.00
2023-03-27T05:05:31.909Z,100.00
2023-03-27T05:08:01.777Z,100.00
2023-03-27T05:10:30.038Z,100.00
2023-03-27T05:12:58.867Z,100.00
2023-03-27T05:15:28.125Z,100.00
2023-03-27T05:17:56.458Z,100.00
2023-03-27T05:20:26.876Z,100.00
2023-03-27T05:22:59.077Z,100.00
2023-03-27T05:25:29.353Z,100.00
2023-03-27T05:28:00.424Z,100.00
2023-03-27T05:30:31.867Z,100.00
2023-03-27T05:33:14.695Z,100.00
2023-03-27T05:35:46.440Z,100.00
2023-03-27T05:38:15.592Z,100.00
2023-03-27T05:40:53.785Z,100.00
2023-03-27T05:43:23.043Z,100.00
2023-03-27T05:45:51.547Z,100.00
2023-03-27T05:48:19.487Z,100.00
2023-03-27T05:50:47.851Z,100.00
2023-03-27T05:53:20.430Z,100.00
2023-03-27T05:56:34.879Z,100.00
2023-03-27T05:59:04.344Z,100.00
2023-03-27T06:01:37.667Z,100.00
2023-03-27T06:04:09.530Z,100.00
2023-03-27T06:07:28.652Z,100.00
2023-03-27T06:09:58.412Z,100.00
2023-03-27T06:12:46.415Z,100.00
2023-03-27T06:15:25.920Z,100.00
2023-03-27T06:18:16.732Z,100.00
2023-03-27T06:20:45.010Z,100.00
2023-03-27T06:23:13.417Z,100.00
2023-03-27T06:25:43.601Z,100.00
2023-03-27T06:28:12.314Z,100.00
2023-03-27T06:30:50.730Z,100.00
2023-03-27T06:33:27.845Z,100.00
2023-03-27T06:36:01.013Z,100.00
2023-03-27T06:38:34.619Z,100.00
2023-03-27T06:41:02.929Z,100.00
2023-03-27T06:43:47.983Z,100.00
2023-03-27T06:46:42.731Z,100.00
2023-03-27T06:49:31.717Z,100.00
2023-03-27T06:52:00.711Z,100.00
2023-03-27T06:54:29.409Z,100.00
2023-03-27T06:56:57.509Z,100.00
2023-03-27T06:59:26.387Z,100.00
2023-03-27T07:02:17.842Z,100.00
2023-03-27T07:05:08.399Z,100.00
2023-03-27T07:07:41.875Z,100.00
2023-03-27T07:10:11.791Z,100.00
2023-03-27T07:12:41.561Z,100.00
2023-03-27T07:15:10.680Z,100.00
2023-03-27T07:17:48.699Z,100.00
2023-03-27T07:20:19.777Z,100.00
2023-03-27T07:22:48.325Z,100.00
2023-03-27T07:25:37.441Z,100.00
2023-03-27T07:28:10.689Z,100.00
2023-03-27T07:30:39.982Z,100.00
2023-03-27T07:33:11.270Z,100.00
2023-03-27T07:35:44.185Z,100.00
2023-03-27T07:38:42.298Z,100.00
2023-03-27T07:41:26.266Z,100.00
2023-03-27T07:44:01.018Z,100.00
2023-03-27T07:46:35.603Z,100.00
2023-03-27T07:49:04.940Z,100.00
2023-03-27T07:51:33.183Z,100.00
2023-03-27T07:54:04.309Z,99.79
2023-03-27T07:56:35.951Z,100.00
2023-03-27T07:59:22.744Z,100.00
2023-03-27T08:01:51.903Z,100.00
2023-03-27T08:04:20.825Z,100.00
2023-03-27T08:07:10.126Z,100.00
2023-03-27T08:09:39.115Z,100.00
2023-03-27T08:12:08.073Z,100.00
2023-03-27T08:14:41.630Z,100.00
2023-03-27T08:17:30.133Z,100.00
2023-03-27T08:19:59.624Z,100.00
2023-03-27T08:22:28.695Z,99.86
2023-03-27T08:25:35.630Z,99.83
2023-03-27T08:28:07.372Z,98.77
2023-03-27T08:30:35.677Z,98.58
2023-03-27T08:33:04.040Z,99.71
2023-03-27T08:35:33.798Z,100.00
2023-03-27T08:38:03.868Z,99.98
2023-03-27T08:40:38.696Z,99.91
2023-03-27T08:43:26.591Z,98.84
2023-03-27T08:46:00.624Z,98.52
2023-03-27T08:48:52.049Z,96.93
2023-03-27T08:51:28.138Z,96.95
2023-03-27T08:54:03.478Z,96.57
2023-03-27T08:56:32.271Z,95.88
2023-03-27T08:59:01.863Z,95.40
2023-03-27T09:01:48.108Z,95.78
2023-03-27T09:04:17.670Z,95.60
2023-03-27T09:07:07.119Z,95.41
2023-03-27T09:09:46.735Z,94.43
2023-03-27T09:12:17.580Z,94.25
2023-03-27T09:14:57.589Z,93.48
2023-03-27T09:17:37.785Z,93.58
2023-03-27T09:20:23.562Z,94.11
2023-03-27T09:22:55.318Z,94.14
2023-03-27T09:26:09.563Z,94.53
2023-03-27T09:29:25.790Z,93.49
2023-03-27T09:32:16.234Z,94.07
2023-03-27T09:34:45.184Z,93.77
2023-03-27T09:37:17.490Z,93.69
2023-03-27T09:39:52.379Z,93.24
2023-03-27T09:42:33.264Z,93.48
2023-03-27T09:45:08.118Z,93.48
2023-03-27T09:47:56.960Z,91.80
2023-03-27T09:50:44.475Z,90.70
2023-03-27T09:53:36.271Z,90.10
2023-03-27T09:56:16.195Z,89.31
2023-03-27T09:58:49.371Z,89.52
2023-03-27T10:01:31.159Z,88.78
2023-03-27T10:04:19.069Z,88.98
2023-03-27T10:07:01.903Z,88.38
2023-03-27T10:10:15.690Z,88.54
2023-03-27T10:13:11.273Z,88.50
2023-03-27T10:15:44.382Z,88.07
2023-03-27T10:18:27.492Z,88.07
2023-03-27T10:21:47.649Z,88.61
2023-03-27T10:24:46.181Z,88.68
2023-03-27T10:27:33.985Z,88.55
2023-03-27T10:30:27.456Z,88.57
2023-03-27T10:32:59.381Z,88.62
2023-03-27T10:35:49.071Z,87.76
2023-03-27T10:38:28.738Z,87.46
2023-03-27T10:41:12.077Z,87.23
2023-03-27T10:43:47.984Z,87.36
2023-03-27T10:46:23.729Z,87.84
2023-03-27T10:49:01.135Z,87.47
2023-03-27T10:51:53.873Z,87.30
2023-03-27T10:54:43.068Z,86.65
2023-03-27T10:57:30.872Z,85.73
2023-03-27T11:04:45.420Z,84.49
2023-03-27T11:07:50.387Z,84.24
2023-03-27T11:10:36.769Z,83.19
2023-03-27T11:13:14.578Z,83.60
2023-03-27T11:15:51.044Z,83.44
2023-03-27T11:18:45.510Z,83.70
2023-03-27T11:21:38.703Z,83.39
2023-03-27T11:24:17.616Z,82.94
2023-03-27T11:27:03.693Z,81.65
2023-03-27T11:29:44.283Z,78.87
2023-03-27T11:32:29.296Z,77.90
2023-03-27T11:35:21.549Z,76.17
2023-03-27T11:38:06.496Z,76.27
2023-03-27T11:40:46.454Z,75.96
2023-03-27T11:43:16.674Z,76.24
2023-03-27T11:46:08.992Z,77.00
2023-03-27T11:48:46.537Z,76.27
2023-03-27T11:51:38.050Z,75.30
2023-03-27T11:54:18.113Z,74.28
2023-03-27T11:57:03.405Z,74.51
2023-03-27T11:59:51.390Z,73.68
2023-03-27T12:02:37.438Z,74.51
2023-03-27T12:05:20.905Z,74.95
2023-03-27T12:07:54.427Z,74.95
2023-03-27T12:10:34.985Z,75.40
2023-03-27T12:14:01.693Z,75.28
2023-03-27T12:16:56.385Z,74.27
2023-03-27T12:19:29.690Z,75.18
2023-03-27T12:23:02.748Z,74.01
2023-03-27T12:26:21.956Z,73.33
2023-03-27T12:29:23.358Z,73.97
2023-03-27T12:32:41.080Z,73.51
2023-03-27T12:35:31.230Z,73.15
2023-03-27T12:38:07.620Z,72.85
2023-03-27T12:40:48.514Z,73.18
2023-03-27T12:43:30.546Z,73.58
2023-03-27T12:46:37.404Z,74.20
2023-03-27T12:49:10.812Z,74.58
2023-03-27T12:51:54.183Z,75.21
2023-03-27T12:54:41.102Z,76.11
2023-03-27T12:57:46.068Z,76.40
2023-03-27T13:00:28.847Z,76.21
2023-03-27T13:03:25.857Z,76.07
2023-03-27T13:06:00.585Z,75.38
2023-03-27T13:08:34.462Z,75.82
2023-03-27T13:11:17.950Z,75.76
2023-03-27T13:14:24.241Z,75.81
2023-03-27T13:17:01.945Z,76.14
2023-03-27T13:19:34.142Z,76.56
2023-03-27T13:22:25.432Z,76.82
2023-03-27T13:25:09.991Z,75.62
2023-03-27T13:27:49.671Z,73.67
2023-03-27T13:30:43.638Z,72.62
2023-03-27T13:33:31.822Z,73.17
2023-03-27T13:36:22.839Z,73.61
2023-03-27T13:38:51.933Z,73.15
2023-03-27T13:41:45.107Z,73.09
2023-03-27T13:44:57.885Z,73.74
2023-03-27T13:47:33.564Z,73.75
2023-03-27T13:50:16.696Z,74.40
2023-03-27T13:53:03.653Z,75.40
2023-03-27T13:56:17.092Z,76.12
2023-03-27T13:59:39.230Z,77.18
2023-03-27T14:02:16.476Z,77.47
2023-03-27T14:04:59.400Z,77.87
2023-03-27T14:08:09.049Z,77.61
2023-03-27T14:11:18.657Z,77.59
2023-03-27T14:13:54.638Z,78.19
2023-03-27T14:16:53.348Z,78.19
2023-03-27T14:19:58.020Z,78.09
2023-03-27T14:22:43.209Z,77.95
2023-03-27T14:25:25.530Z,78.39
2023-03-27T14:27:59.977Z,78.56
2023-03-27T14:30:30.798Z,78.77
2023-03-27T14:33:23.861Z,79.19
2023-03-27T14:36:03.368Z,79.48
2023-03-27T14:38:34.112Z,79.83
2023-03-27T14:41:04.737Z,79.98
2023-03-27T14:43:51.590Z,80.36
2023-03-27T14:46:23.628Z,80.61
2023-03-27T14:48:56.855Z,81.35
2023-03-27T14:51:37.630Z,81.55
2023-03-27T14:54:14.417Z,81.50
2023-03-27T14:56:53.875Z,82.02
2023-03-27T14:59:26.924Z,82.38
2023-03-27T15:02:02.215Z,82.67
2023-03-27T15:04:32.927Z,83.13
2023-03-27T15:07:19.984Z,84.19
2023-03-27T15:10:06.408Z,84.26
2023-03-27T15:13:00.177Z,84.80
2023-03-27T15:15:42.715Z,85.15
2023-03-27T15:18:22.789Z,85.18
2023-03-27T15:20:52.935Z,86.40
2023-03-27T15:23:30.017Z,86.94
2023-03-27T15:26:03.666Z,87.02
2023-03-27T15:29:01.469Z,87.03
2023-03-27T15:31:33.103Z,87.00
2023-03-27T15:34:15.693Z,86.90
2023-03-27T15:36:58.315Z,86.22
2023-03-27T15:39:26.921Z,86.31
2023-03-27T15:42:05.363Z,85.96
2023-03-27T15:44:34.191Z,85.84
2023-03-27T15:47:02.974Z,85.76
2023-03-27T15:49:33.454Z,85.88
2023-03-27T15:52:28.516Z,86.18
2023-03-27T15:54:56.999Z,86.11
2023-03-27T15:57:27.061Z,86.40
2023-03-27T16:00:00.557Z,86.38
2023-03-27T16:02:32.683Z,86.24
2023-03-27T16:05:01.409Z,86.62
2023-03-27T16:07:38.956Z,86.72
2023-03-27T16:10:07.797Z,86.96
2023-03-27T16:13:01.960Z,86.78
2023-03-27T16:15:36.799Z,87.20
2023-03-27T16:18:19.215Z,87.60
2023-03-27T16:20:47.882Z,87.43
2023-03-27T16:23:15.865Z,87.28
2023-03-27T16:25:44.530Z,86.74
2023-03-27T16:28:14.239Z,87.11
2023-03-27T16:30:42.456Z,86.83
2023-03-27T16:33:21.251Z,86.75
2023-03-27T16:35:50.454Z,86.93
2023-03-27T16:38:18.613Z,86.39
2023-03-27T16:40:46.746Z,86.36
2023-03-27T16:43:14.995Z,86.55
2023-03-27T16:45:43.016Z,86.23
2023-03-27T16:48:11.740Z,88.52
2023-03-27T16:50:40.414Z,89.67
2023-03-27T16:53:08.684Z,91.31
2023-03-27T16:55:38.862Z,92.78
2023-03-27T16:58:07.263Z,93.47
2023-03-27T17:00:36.003Z,93.85
2023-03-27T17:03:04.364Z,95.16
2023-03-27T17:05:34.493Z,95.03
2023-03-27T17:08:03.699Z,95.50
2023-03-27T17:10:32.797Z,96.39
2023-03-27T17:13:00.864Z,96.94
2023-03-27T17:15:29.008Z,97.30
2023-03-27T17:17:57.344Z,97.57
2023-03-27T17:20:25.409Z,99.05
2023-03-27T17:22:53.651Z,98.84
2023-03-27T17:25:22.165Z,98.79
2023-03-27T17:27:50.663Z,99.00
2023-03-27T17:30:30.543Z,99.51
2023-03-27T17:33:05.263Z,99.64
2023-03-27T17:35:34.328Z,99.72
2023-03-27T17:38:03.644Z,99.86
2023-03-27T17:40:32.097Z,99.99
2023-03-27T17:43:00.760Z,100.00
2023-03-27T17:45:29.439Z,100.00
2023-03-27T17:47:58.045Z,100.00
2023-03-27T17:50:26.175Z,100.00
2023-03-27T17:52:54.376Z,100.00
2023-03-27T17:55:22.720Z,100.00
2023-03-27T17:58:01.850Z,100.00
2023-03-27T18:00:31.778Z,100.00
2023-03-27T18:02:59.792Z,100.00
2023-03-27T18:05:28.235Z,100.00
2023-03-27T18:07:56.468Z,100.00
2023-03-27T18:10:26.136Z,100.00
2023-03-27T18:12:54.807Z,100.00
2023-03-27T18:15:22.898Z,100.00
2023-03-27T18:17:51.389Z,100.00
2023-03-27T18:20:19.581Z,100.00
2023-03-27T18:22:47.945Z,100.00
2023-03-27T18:25:16.177Z,100.00
2023-03-27T18:27:45.096Z,100.00
2023-03-27T18:30:15.375Z,100.00
2023-03-27T18:32:45.681Z,100.00
2023-03-27T18:35:16.744Z,100.00
2023-03-27T18:37:46.834Z,100.00
2023-03-27T18:40:17.242Z,100.00
2023-03-27T18:42:45.390Z,100.00
2023-03-27T18:45:16.804Z,100.00
2023-03-27T18:47:45.416Z,100.00
2023-03-27T18:50:15.317Z,100.00
2023-03-27T18:52:44.045Z,100.00
2023-03-27T18:55:13.113Z,100.00
2023-03-27T18:57:41.287Z,100.00
2023-03-27T19:04:36.121Z,100.00
2023-03-27T19:07:04.115Z,100.00
2023-03-27T19:09:40.850Z,100.00
2023-03-27T19:12:10.776Z,100.00
2023-03-27T19:15:00.451Z,100.00
2023-03-27T19:18:02.394Z,100.00
2023-03-27T19:20:49.835Z,100.00
2023-03-27T19:23:45.519Z,100.00
2023-03-27T19:26:17.165Z,100.00
2023-03-27T19:28:49.127Z,100.00
2023-03-27T19:31:17.722Z,100.00
2023-03-27T19:33:46.326Z,100.00
2023-03-27T19:36:14.575Z,100.00
2023-03-27T19:38:42.795Z,100.00
2023-03-27T19:41:11.633Z,100.00
2023-03-27T19:43:39.824Z,100.00
2023-03-27T19:46:16.231Z,100.00
2023-03-27T19:48:45.736Z,100.00
2023-03-27T19:51:21.806Z,100.00
2023-03-27T19:53:52.626Z,100.00
2023-03-27T19:56:23.466Z,100.00
2023-03-27T19:58:52.399Z,100.00
2023-03-27T20:01:21.881Z,100.00
2023-03-27T20:03:50.540Z,100.00
2023-03-27T20:06:18.977Z,100.00
2023-03-27T20:08:47.203Z,99.82
2023-03-27T20:11:16.957Z,99.20
2023-03-27T20:13:55.236Z,98.44
2023-03-27T20:16:27.493Z,97.70
2023-03-27T20:19:03.912Z,97.49
2023-03-27T20:21:37.795Z,97.24
2023-03-27T20:24:10.117Z,96.86
2023-03-27T20:26:42.085Z,96.60
2023-03-27T20:29:17.077Z,95.40
2023-03-27T20:31:46.792Z,96.29
2023-03-27T20:34:20.039Z,95.75
2023-03-27T20:36:53.648Z,95.31
2023-03-27T20:39:47.399Z,95.19
2023-03-27T20:42:18.122Z,95.13
2023-03-27T20:44:47.163Z,95.00
2023-03-27T20:47:19.136Z,94.88
2023-03-27T20:49:48.945Z,94.74
2023-03-27T20:52:19.502Z,94.39
2023-03-27T20:54:47.955Z,93.92
2023-03-27T20:57:17.812Z,93.36
2023-03-27T20:59:48.269Z,93.45
2023-03-27T21:02:19.253Z,92.80
2023-03-27T21:04:48.190Z,93.18
2023-03-27T21:07:16.832Z,92.81
2023-03-27T21:09:46.768Z,92.48
2023-03-27T21:12:14.814Z,92.64
2023-03-27T21:14:42.956Z,92.35
2023-03-27T21:17:12.903Z,92.18
2023-03-27T21:19:41.114Z,92.36
2023-03-27T21:22:09.355Z,92.43
2023-03-27T21:24:37.499Z,92.20
2023-03-27T21:27:06.040Z,92.10
2023-03-27T21:29:34.269Z,92.31
2023-03-27T21:32:02.355Z,91.83
2023-03-27T21:34:30.819Z,92.30
2023-03-27T21:36:58.894Z,92.19
2023-03-27T21:39:27.270Z,91.95
2023-03-27T21:41:55.570Z,91.74
2023-03-27T21:44:23.572Z,91.82
2023-03-27T21:46:51.618Z,91.69
2023-03-27T21:49:19.682Z,92.01
2023-03-27T21:51:47.879Z,91.66
2023-03-27T21:54:16.173Z,91.77
2023-03-27T21:56:44.242Z,91.73
2023-03-27T21:59:12.313Z,91.62
2023-03-27T22:01:40.314Z,91.75
2023-03-27T22:04:08.352Z,91.89
2023-03-27T22:06:36.722Z,91.64
2023-03-27T22:09:04.790Z,91.81
2023-03-27T22:11:33.000Z,91.72
2023-03-27T22:14:01.255Z,91.69
2023-03-27T22:16:29.502Z,91.56
2023-03-27T22:18:57.500Z,91.65
2023-03-27T22:21:29.958Z,91.53
2023-03-27T22:23:59.254Z,91.91
2023-03-27T22:26:33.503Z,91.58
2023-03-27T22:29:02.089Z,91.80
2023-03-27T22:31:30.711Z,91.76
2023-03-27T22:34:00.299Z,91.81
2023-03-27T22:36:28.561Z,92.07
2023-03-27T22:38:56.766Z,92.08
2023-03-27T22:41:25.837Z,92.42
2023-03-27T22:43:54.121Z,92.15
2023-03-27T22:46:23.841Z,92.30
2023-03-27T22:48:56.567Z,92.25
2023-03-27T22:51:25.554Z,92.39
2023-03-27T22:53:53.848Z,92.06
2023-03-27T22:56:21.923Z,92.19
2023-03-27T22:58:50.165Z,92.37
2023-03-27T23:01:18.337Z,92.44
2023-03-27T23:03:46.824Z,92.44
2023-03-27T23:06:21.340Z,92.50
2023-03-27T23:08:50.116Z,92.80
2023-03-27T23:11:19.401Z,93.04
2023-03-27T23:13:48.422Z,93.14
2023-03-27T23:16:16.544Z,92.71
2023-03-27T23:18:44.671Z,92.95
2023-03-27T23:21:14.293Z,92.89
2023-03-27T23:23:42.848Z,93.18
2023-03-27T23:26:12.977Z,93.10
2023-03-27T23:28:42.237Z,93.83
2023-03-27T23:31:13.897Z,93.74
2023-03-27T23:33:47.832Z,93.62
2023-03-27T23:36:24.970Z,93.72
2023-03-27T23:38:53.963Z,93.79
2023-03-27T23:41:23.038Z,94.33
2023-03-27T23:43:51.230Z,94.63
2023-03-27T23:46:19.775Z,94.53
2023-03-27T23:48:47.968Z,94.50
2023-03-27T23:51:17.061Z,94.31
2023-03-27T23:53:45.509Z,94.62
2023-03-27T23:56:13.642Z,94.51
2023-03-27T23:58:41.859Z,95.01
